createdAt,value
2022-12-09T00:01:22.132Z,5.85
2022-12-09T00:03:49.860Z,5.30
2022-12-09T00:06:17.974Z,5.40
2022-12-09T00:08:45.048Z,5.88
2022-12-09T00:11:12.417Z,6.15
2022-12-09T00:13:39.323Z,6.57
2022-12-09T00:16:14.065Z,6.00
2022-12-09T00:18:45.938Z,6.18
2022-12-09T00:21:23.132Z,6.75
2022-12-09T00:23:51.471Z,6.38
2022-12-09T00:26:20.099Z,6.65
2022-12-09T00:28:47.972Z,5.90
2022-12-09T00:31:24.423Z,6.10
2022-12-09T00:33:55.570Z,5.53
2022-12-09T00:36:23.216Z,5.57
2022-12-09T00:38:50.673Z,5.95
2022-12-09T00:41:18.081Z,6.00
2022-12-09T00:43:44.785Z,5.90
2022-12-09T00:46:12.883Z,5.50
2022-12-09T00:48:40.276Z,5.63
2022-12-09T00:51:08.806Z,5.28
2022-12-09T00:53:39.111Z,5.60
2022-12-09T00:56:06.662Z,6.13
2022-12-09T00:58:33.335Z,5.80
2022-12-09T01:01:00.295Z,5.70
2022-12-09T01:03:27.632Z,5.40
2022-12-09T01:05:57.430Z,5.85
2022-12-09T01:08:24.368Z,6.15
2022-12-09T01:10:51.222Z,6.05
2022-12-09T01:13:20.579Z,6.18
2022-12-09T01:15:47.616Z,6.07
2022-12-09T01:18:16.918Z,6.00
2022-12-09T01:20:45.789Z,5.35
2022-12-09T01:23:14.965Z,6.20
2022-12-09T01:25:41.665Z,6.13
2022-12-09T01:28:10.486Z,6.05
2022-12-09T01:30:39.604Z,6.25
2022-12-09T01:33:08.744Z,6.00
2022-12-09T01:35:39.535Z,5.97
2022-12-09T01:38:06.408Z,6.80
2022-12-09T01:40:33.252Z,6.35
2022-12-09T01:43:00.195Z,6.15
2022-12-09T01:45:40.766Z,6.25
2022-12-09T01:48:16.950Z,6.28
2022-12-09T01:50:49.073Z,5.97
2022-12-09T01:53:19.695Z,6.25
2022-12-09T01:55:46.466Z,5.80
2022-12-09T01:58:14.956Z,6.18
2022-12-09T02:00:42.858Z,6.35
2022-12-09T02:03:09.842Z,6.15
2022-12-09T02:05:37.302Z,5.95
2022-12-09T02:08:07.772Z,6.57
2022-12-09T02:10:38.256Z,6.47
2022-12-09T02:13:25.294Z,6.45
2022-12-09T02:15:58.931Z,6.85
2022-12-09T02:18:39.153Z,6.05
2022-12-09T02:23:59.367Z,5.97
2022-12-09T02:26:30.577Z,5.43
2022-12-09T02:29:16.218Z,6.78
2022-12-09T02:32:09.600Z,6.20
2022-12-09T02:34:44.400Z,6.45
2022-12-09T02:37:15.156Z,6.15
2022-12-09T02:39:59.537Z,6.93
2022-12-09T02:42:36.168Z,6.55
2022-12-09T02:45:08.855Z,5.80
2022-12-09T02:47:41.729Z,5.85
2022-12-09T02:50:13.349Z,5.90
2022-12-09T02:52:42.223Z,6.38
2022-12-09T02:55:12.493Z,5.47
2022-12-09T02:57:41.937Z,5.93
2022-12-09T03:00:14.019Z,6.35
2022-12-09T03:02:44.898Z,6.45
2022-12-09T03:05:20.754Z,6.65
2022-12-09T03:08:15.105Z,6.70
2022-12-09T03:10:50.949Z,5.97
2022-12-09T03:13:33.935Z,5.25
2022-12-09T03:16:39.589Z,5.47
2022-12-09T03:19:36.339Z,6.15
2022-12-09T03:22:11.614Z,5.70
2022-12-09T03:24:57.318Z,5.55
2022-12-09T03:27:33.257Z,5.93
2022-12-09T03:30:02.014Z,6.10
2022-12-09T03:32:30.622Z,5.35
2022-12-09T03:35:04.046Z,5.20
2022-12-09T03:37:32.248Z,5.57
2022-12-09T03:40:00.713Z,5.63
2022-12-09T03:42:42.380Z,5.60
2022-12-09T03:45:15.244Z,6.38
2022-12-09T03:47:44.530Z,5.53
2022-12-09T03:50:12.970Z,5.43
2022-12-09T03:52:39.785Z,6.18
2022-12-09T03:55:13.909Z,5.65
2022-12-09T03:57:45.216Z,5.75
2022-12-09T04:00:15.837Z,5.70
2022-12-09T04:02:42.852Z,5.90
2022-12-09T04:05:10.358Z,5.50
2022-12-09T04:07:39.692Z,6.55
2022-12-09T04:10:10.478Z,5.97
2022-12-09T04:12:40.387Z,5.82
2022-12-09T04:15:08.343Z,6.28
2022-12-09T04:17:37.837Z,5.25
2022-12-09T04:20:06.544Z,5.63
2022-12-09T04:22:36.334Z,5.82
2022-12-09T04:25:03.644Z,6.03
2022-12-09T04:27:32.669Z,6.18
2022-12-09T04:30:02.403Z,6.10
2022-12-09T04:32:30.420Z,6.65
2022-12-09T04:34:57.360Z,5.30
2022-12-09T04:37:26.212Z,6.60
2022-12-09T04:39:52.946Z,6.05
2022-12-09T04:42:21.930Z,5.30
2022-12-09T04:44:49.018Z,6.13
2022-12-09T04:47:16.089Z,5.90
2022-12-09T04:49:45.135Z,6.43
2022-12-09T04:52:14.254Z,6.55
2022-12-09T04:54:40.928Z,6.35
2022-12-09T04:57:12.383Z,5.82
2022-12-09T04:59:39.500Z,6.32
2022-12-09T05:02:09.156Z,6.15
2022-12-09T05:04:36.056Z,6.28
2022-12-09T05:07:03.197Z,6.68
2022-12-09T05:09:30.358Z,6.30
2022-12-09T05:12:00.525Z,5.95
2022-12-09T05:16:54.663Z,6.18
2022-12-09T05:19:26.470Z,5.97
2022-12-09T05:21:53.559Z,5.28
2022-12-09T05:24:20.207Z,5.88
2022-12-09T05:26:47.373Z,5.75
2022-12-09T05:29:19.302Z,6.22
2022-12-09T05:31:51.565Z,5.45
2022-12-09T05:34:19.004Z,5.72
2022-12-09T05:36:46.184Z,5.70
2022-12-09T05:39:15.283Z,6.20
2022-12-09T05:41:43.425Z,5.68
2022-12-09T05:44:14.633Z,5.70
2022-12-09T05:46:44.242Z,5.57
2022-12-09T05:49:11.294Z,6.00
2022-12-09T05:51:38.469Z,5.70
2022-12-09T05:54:06.639Z,6.55
2022-12-09T05:56:33.696Z,5.65
2022-12-09T05:59:01.334Z,5.00
2022-12-09T06:01:28.655Z,6.47
2022-12-09T06:03:55.894Z,5.22
2022-12-09T06:06:27.895Z,5.65
2022-12-09T06:08:57.370Z,5.53
2022-12-09T06:11:27.849Z,5.40
2022-12-09T06:13:55.456Z,4.97
2022-12-09T06:16:23.390Z,4.93
2022-12-09T06:18:50.765Z,5.18
2022-12-09T06:21:19.319Z,6.35
2022-12-09T06:23:47.623Z,5.32
2022-12-09T06:26:30.779Z,5.70
2022-12-09T06:28:57.833Z,5.72
2022-12-09T06:31:28.298Z,4.68
2022-12-09T06:33:57.666Z,4.78
2022-12-09T06:38:57.021Z,4.90
2022-12-09T06:41:26.957Z,5.22
2022-12-09T06:43:56.582Z,4.78
2022-12-09T06:46:26.488Z,5.80
2022-12-09T06:48:56.678Z,5.82
2022-12-09T06:51:25.098Z,5.32
2022-12-09T06:53:52.848Z,5.03
2022-12-09T06:56:19.795Z,4.82
2022-12-09T06:58:47.463Z,5.30
2022-12-09T07:01:16.826Z,4.72
2022-12-09T07:03:46.770Z,5.10
2022-12-09T07:06:31.017Z,5.25
2022-12-09T07:09:04.676Z,5.18
2022-12-09T07:11:31.981Z,4.82
2022-12-09T07:13:59.088Z,5.35
2022-12-09T07:16:26.246Z,6.07
2022-12-09T07:18:53.711Z,4.90
2022-12-09T07:21:24.011Z,5.40
2022-12-09T07:23:51.221Z,5.13
2022-12-09T07:26:19.171Z,5.60
2022-12-09T07:28:50.462Z,4.80
2022-12-09T07:31:27.016Z,5.65
2022-12-09T07:33:56.452Z,5.70
2022-12-09T07:36:25.955Z,6.50
2022-12-09T07:39:04.740Z,5.43
2022-12-09T07:41:31.728Z,5.53
2022-12-09T07:43:58.673Z,5.63
2022-12-09T07:46:27.527Z,6.13
2022-12-09T07:48:57.332Z,6.13
2022-12-09T07:51:27.596Z,5.70
2022-12-09T07:56:23.461Z,5.70
2022-12-09T07:58:56.697Z,5.53
2022-12-09T08:01:29.537Z,6.28
2022-12-09T08:03:57.310Z,5.70
2022-12-09T08:06:27.387Z,5.82
2022-12-09T08:08:59.630Z,5.85
2022-12-09T08:11:29.335Z,5.80
2022-12-09T08:13:58.449Z,5.90
2022-12-09T08:16:25.956Z,6.10
2022-12-09T08:18:57.419Z,6.60
2022-12-09T08:21:31.360Z,6.22
2022-12-09T08:24:03.091Z,6.68
2022-12-09T08:26:32.408Z,6.63
2022-12-09T08:28:59.928Z,5.63
2022-12-09T08:31:30.314Z,5.97
2022-12-09T08:34:02.328Z,6.28
2022-12-09T08:36:29.302Z,7.55
2022-12-09T08:38:59.475Z,6.32
2022-12-09T08:44:07.904Z,6.18
2022-12-09T08:46:36.393Z,6.85
2022-12-09T08:49:04.432Z,7.07
2022-12-09T08:51:32.486Z,6.82
2022-12-09T08:54:00.501Z,6.80
2022-12-09T08:56:29.956Z,6.30
2022-12-09T08:58:57.245Z,7.13
2022-12-09T09:01:32.268Z,7.10
2022-12-09T09:04:10.527Z,7.07
2022-12-09T09:06:39.500Z,6.75
2022-12-09T09:09:10.107Z,7.40
2022-12-09T09:11:43.152Z,6.85
2022-12-09T09:14:14.214Z,7.55
2022-12-09T09:16:45.372Z,6.60
2022-12-09T09:19:21.851Z,7.20
2022-12-09T09:21:50.016Z,6.82
2022-12-09T09:24:19.897Z,6.43
2022-12-09T09:26:47.796Z,6.15
2022-12-09T09:29:16.824Z,6.38
2022-12-09T09:31:44.053Z,6.90
2022-12-09T09:34:11.465Z,6.93
2022-12-09T09:36:39.163Z,6.90
2022-12-09T09:39:08.599Z,7.00
2022-12-09T09:41:53.630Z,7.10
2022-12-09T09:44:28.911Z,7.15
2022-12-09T09:46:57.467Z,6.45
2022-12-09T09:49:27.184Z,6.63
2022-12-09T09:51:55.008Z,7.20
2022-12-09T09:54:24.281Z,7.05
2022-12-09T09:57:00.095Z,7.10
2022-12-09T09:59:56.545Z,7.57
2022-12-09T10:02:48.372Z,7.07
2022-12-09T10:05:24.055Z,7.63
2022-12-09T10:07:57.150Z,7.55
2022-12-09T10:10:37.427Z,7.82
2022-12-09T10:16:18.739Z,8.43
2022-12-09T10:19:09.685Z,8.48
2022-12-09T10:21:42.841Z,9.43
2022-12-09T10:24:39.301Z,9.88
2022-12-09T10:27:35.102Z,10.05
2022-12-09T10:30:10.324Z,10.23
2022-12-09T10:32:39.201Z,10.82
2022-12-09T10:35:18.740Z,9.45
2022-12-09T10:37:47.923Z,11.40
2022-12-09T10:40:48.050Z,10.55
2022-12-09T10:43:52.465Z,9.75
2022-12-09T10:46:24.379Z,10.52
2022-12-09T10:48:53.314Z,11.80
2022-12-09T10:51:25.825Z,11.40
2022-12-09T10:54:01.158Z,10.35
2022-12-09T10:56:34.114Z,10.77
2022-12-09T10:59:19.723Z,10.10
2022-12-09T11:01:55.721Z,12.05
2022-12-09T11:04:27.442Z,11.65
2022-12-09T11:07:02.508Z,12.48
2022-12-09T11:09:35.809Z,12.07
2022-12-09T11:12:05.842Z,11.57
2022-12-09T11:14:53.379Z,11.48
2022-12-09T11:17:43.130Z,10.75
2022-12-09T11:20:19.314Z,11.38
2022-12-09T11:23:04.572Z,9.63
2022-12-09T11:25:35.200Z,9.45
2022-12-09T11:28:24.532Z,9.82
2022-12-09T11:31:33.704Z,9.73
2022-12-09T11:34:04.711Z,9.98
2022-12-09T11:36:37.318Z,10.20
2022-12-09T11:39:24.948Z,11.50
2022-12-09T11:42:18.890Z,11.50
2022-12-09T11:45:07.170Z,10.63
2022-12-09T11:48:13.899Z,10.00
2022-12-09T11:50:33.158Z,9.65
2022-12-09T11:53:12.345Z,9.35
2022-12-09T11:55:55.322Z,10.00
2022-12-09T11:58:38.083Z,8.93
2022-12-09T12:01:11.428Z,9.43
2022-12-09T12:03:47.343Z,10.23
2022-12-09T12:06:50.503Z,9.35
2022-12-09T12:09:42.026Z,9.55
2022-12-09T12:12:29.769Z,9.57
2022-12-09T12:15:02.505Z,8.88
2022-12-09T12:17:43.022Z,9.00
2022-12-09T12:20:13.778Z,9.15
2022-12-09T12:23:09.237Z,8.70
2022-12-09T12:26:14.346Z,8.73
2022-12-09T12:28:58.079Z,9.40
2022-12-09T12:31:59.175Z,9.00
2022-12-09T12:34:40.853Z,9.32
2022-12-09T12:37:34.723Z,8.85
2022-12-09T12:40:11.377Z,8.07
2022-12-09T12:43:28.792Z,9.05
2022-12-09T12:46:19.392Z,7.38
2022-12-09T12:48:55.241Z,8.00
2022-12-09T12:51:33.882Z,7.13
2022-12-09T12:54:25.769Z,5.72
2022-12-09T12:57:10.558Z,5.32
2022-12-09T12:59:48.626Z,5.85
2022-12-09T13:02:39.257Z,6.32
2022-12-09T13:05:23.669Z,5.07
2022-12-09T13:08:07.745Z,5.80
2022-12-09T13:10:42.221Z,5.53
2022-12-09T13:13:23.331Z,6.22
2022-12-09T13:15:53.047Z,6.07
2022-12-09T13:18:27.921Z,5.93
2022-12-09T13:20:57.098Z,5.45
2022-12-09T13:23:23.761Z,5.53
2022-12-09T13:26:15.228Z,6.40
2022-12-09T13:28:59.674Z,5.38
2022-12-09T13:31:33.387Z,5.43
2022-12-09T13:34:18.779Z,5.93
2022-12-09T13:36:50.234Z,5.10
2022-12-09T13:39:42.114Z,6.28
2022-12-09T13:42:46.587Z,5.68
2022-12-09T13:45:26.349Z,6.78
2022-12-09T13:47:56.701Z,5.88
2022-12-09T13:50:24.855Z,5.70
2022-12-09T13:52:54.830Z,5.38
2022-12-09T13:55:26.226Z,6.55
2022-12-09T13:58:16.319Z,7.05
2022-12-09T14:00:48.024Z,6.65
2022-12-09T14:03:30.811Z,7.22
2022-12-09T14:06:00.184Z,7.45
2022-12-09T14:08:34.602Z,7.05
2022-12-09T14:11:39.859Z,8.32
2022-12-09T14:14:24.976Z,7.47
2022-12-09T14:17:03.693Z,7.60
2022-12-09T14:19:48.736Z,8.70
2022-12-09T14:22:18.653Z,8.18
2022-12-09T14:24:53.428Z,7.85
2022-12-09T14:27:31.727Z,9.85
2022-12-09T14:30:03.937Z,9.88
2022-12-09T14:32:53.720Z,8.93
2022-12-09T14:35:31.333Z,8.25
2022-12-09T14:38:10.126Z,8.50
2022-12-09T14:40:42.967Z,8.70
2022-12-09T14:43:33.827Z,9.00
2022-12-09T14:46:17.665Z,8.25
2022-12-09T14:48:53.417Z,8.13
2022-12-09T14:51:35.653Z,8.52
2022-12-09T14:54:07.514Z,8.80
2022-12-09T14:56:35.000Z,7.93
2022-12-09T14:59:19.443Z,7.88
2022-12-09T15:01:56.086Z,7.97
2022-12-09T15:04:33.915Z,7.80
2022-12-09T15:07:20.266Z,8.20
2022-12-09T15:09:48.130Z,7.53
2022-12-09T15:12:21.478Z,7.57
2022-12-09T15:14:54.407Z,7.60
2022-12-09T15:17:28.901Z,8.50
2022-12-09T15:20:00.503Z,7.82
2022-12-09T15:22:31.520Z,6.50
2022-12-09T15:24:58.633Z,6.60
2022-12-09T15:27:26.314Z,7.07
2022-12-09T15:29:58.140Z,7.03
2022-12-09T15:32:32.775Z,7.65
2022-12-09T15:35:27.265Z,7.80
2022-12-09T15:37:57.854Z,7.78
2022-12-09T15:40:29.120Z,8.00
2022-12-09T15:43:02.852Z,8.60
2022-12-09T15:45:38.220Z,8.45
2022-12-09T15:48:20.609Z,8.48
2022-12-09T15:50:49.807Z,8.73
2022-12-09T15:53:37.106Z,8.50
2022-12-09T15:56:11.482Z,8.90
2022-12-09T15:58:49.158Z,8.23
2022-12-09T16:01:32.374Z,8.98
2022-12-09T16:04:01.170Z,11.02
2022-12-09T16:06:37.472Z,11.27
2022-12-09T16:09:13.675Z,11.57
2022-12-09T16:11:47.973Z,13.25
2022-12-09T16:14:18.899Z,13.25
2022-12-09T16:17:00.084Z,12.25
2022-12-09T16:19:38.710Z,11.60
2022-12-09T16:22:11.180Z,10.50
2022-12-09T16:27:39.317Z,11.00
2022-12-09T16:30:27.201Z,11.05
2022-12-09T16:32:58.567Z,11.90
2022-12-09T16:35:40.926Z,11.10
2022-12-09T16:38:10.667Z,11.77
2022-12-09T16:40:43.495Z,11.43
2022-12-09T16:43:16.338Z,11.18
2022-12-09T16:45:43.155Z,11.48
2022-12-09T16:48:13.487Z,11.60
2022-12-09T16:50:51.982Z,11.80
2022-12-09T16:53:24.804Z,12.80
2022-12-09T16:56:00.155Z,11.90
2022-12-09T16:58:28.598Z,13.07
2022-12-09T17:00:55.882Z,15.75
2022-12-09T17:03:39.768Z,18.05
2022-12-09T17:06:12.727Z,24.35
2022-12-09T17:08:39.480Z,21.42
2022-12-09T17:11:06.425Z,25.75
2022-12-09T17:13:35.526Z,25.02
2022-12-09T17:16:02.677Z,24.60
2022-12-09T17:18:32.071Z,22.02
2022-12-09T17:21:13.858Z,19.10
2022-12-09T17:23:43.784Z,18.42
2022-12-09T17:26:16.780Z,16.60
2022-12-09T17:28:44.497Z,14.68
2022-12-09T17:31:19.192Z,14.07
2022-12-09T17:33:46.099Z,13.90
2022-12-09T17:36:14.363Z,13.32
2022-12-09T17:38:41.618Z,14.80
2022-12-09T17:41:12.868Z,14.23
2022-12-09T17:43:39.580Z,13.52
2022-12-09T17:46:06.892Z,13.80
2022-12-09T17:48:37.094Z,13.20
2022-12-09T17:53:38.796Z,14.00
2022-12-09T17:56:10.937Z,13.18
2022-12-09T17:58:37.896Z,14.15
2022-12-09T18:01:11.796Z,12.90
2022-12-09T18:04:01.577Z,13.52
2022-12-09T18:06:33.963Z,13.82
2022-12-09T18:09:02.174Z,14.68
2022-12-09T18:11:28.917Z,14.10
2022-12-09T18:13:55.747Z,15.55
2022-12-09T18:16:27.207Z,14.10
2022-12-09T18:18:54.164Z,15.10
2022-12-09T18:21:26.029Z,14.82
2022-12-09T18:23:53.263Z,14.10
2022-12-09T18:26:27.126Z,14.45
2022-12-09T18:28:59.747Z,14.35
2022-12-09T18:31:26.999Z,13.85
2022-12-09T18:33:53.932Z,15.45
2022-12-09T18:36:26.622Z,15.07
2022-12-09T18:38:57.968Z,14.35
2022-12-09T18:41:29.494Z,14.88
2022-12-09T18:43:58.676Z,14.05
2022-12-09T18:46:31.443Z,15.95
2022-12-09T18:49:06.040Z,14.63
2022-12-09T18:51:33.622Z,14.73
2022-12-09T18:54:06.522Z,14.40
2022-12-09T18:56:34.268Z,15.73
2022-12-09T18:59:08.413Z,15.40
2022-12-09T19:01:41.134Z,15.90
2022-12-09T19:04:23.017Z,16.58
2022-12-09T19:06:52.414Z,15.88
2022-12-09T19:09:23.942Z,14.15
2022-12-09T19:11:53.431Z,14.85
2022-12-09T19:14:21.829Z,15.75
2022-12-09T19:16:49.676Z,15.80
2022-12-09T19:19:21.189Z,15.80
2022-12-09T19:21:51.288Z,15.43
2022-12-09T19:24:20.451Z,15.93
2022-12-09T19:26:47.304Z,16.08
2022-12-09T19:29:19.950Z,15.05
2022-12-09T19:31:48.634Z,16.33
2022-12-09T19:34:22.499Z,16.73
2022-12-09T19:36:50.919Z,15.95
2022-12-09T19:39:23.546Z,16.75
2022-12-09T19:41:50.991Z,17.10
2022-12-09T19:44:37.141Z,16.48
2022-12-09T19:47:09.375Z,21.45
2022-12-09T19:49:40.863Z,19.00
2022-12-09T19:52:07.623Z,18.67
2022-12-09T19:54:34.325Z,18.55
2022-12-09T19:57:01.355Z,18.45
2022-12-09T19:59:30.919Z,19.20
2022-12-09T20:02:00.063Z,18.83
2022-12-09T20:07:15.077Z,19.85
2022-12-09T20:09:41.787Z,19.45
2022-12-09T20:12:08.488Z,19.73
2022-12-09T20:14:35.176Z,17.80
2022-12-09T20:17:01.888Z,19.40
2022-12-09T20:19:28.795Z,17.83
2022-12-09T20:21:55.648Z,18.67
2022-12-09T20:24:22.799Z,16.65
2022-12-09T20:26:52.082Z,20.27
2022-12-09T20:29:18.801Z,19.80
2022-12-09T20:31:45.540Z,18.95
2022-12-09T20:34:15.005Z,19.33
2022-12-09T20:36:48.615Z,20.48
2022-12-09T20:39:18.272Z,18.90
2022-12-09T20:41:45.582Z,20.60
2022-12-09T20:44:16.344Z,18.90
2022-12-09T20:46:51.454Z,18.73
2022-12-09T20:49:26.387Z,23.08
2022-12-09T20:51:54.522Z,23.55
2022-12-09T20:54:23.788Z,25.02
2022-12-09T20:56:55.219Z,24.27
2022-12-09T20:59:21.955Z,23.23
2022-12-09T21:01:48.682Z,26.52
2022-12-09T21:04:20.012Z,25.50
2022-12-09T21:06:49.365Z,24.35
2022-12-09T21:09:22.150Z,24.50
2022-12-09T21:11:51.201Z,22.52
2022-12-09T21:14:20.818Z,21.42
2022-12-09T21:16:50.975Z,20.58
2022-12-09T21:19:25.231Z,19.15
2022-12-09T21:21:54.622Z,20.33
2022-12-09T21:24:23.816Z,19.65
2022-12-09T21:26:53.132Z,19.05
2022-12-09T21:29:29.876Z,19.37
2022-12-09T21:31:58.605Z,18.55
2022-12-09T21:34:25.499Z,18.73
2022-12-09T21:36:52.862Z,19.95
2022-12-09T21:39:22.025Z,18.95
2022-12-09T21:41:48.792Z,18.30
2022-12-09T21:44:22.344Z,18.92
2022-12-09T21:46:51.558Z,19.48
2022-12-09T21:49:18.221Z,19.92
2022-12-09T21:51:47.416Z,19.42
2022-12-09T21:54:14.155Z,17.40
2022-12-09T21:56:40.944Z,16.88
2022-12-09T21:59:08.236Z,19.40
2022-12-09T22:01:38.189Z,18.60
2022-12-09T22:04:07.627Z,17.98
2022-12-09T22:06:34.585Z,19.58
2022-12-09T22:09:02.259Z,18.70
2022-12-09T22:11:31.577Z,17.35
2022-12-09T22:14:02.099Z,17.33
2022-12-09T22:16:32.288Z,17.70
2022-12-09T22:21:29.267Z,18.30
2022-12-09T22:24:01.245Z,17.70
2022-12-09T22:26:28.528Z,19.30
2022-12-09T22:28:56.838Z,17.75
2022-12-09T22:31:26.719Z,19.15
2022-12-09T22:33:56.326Z,19.52
2022-12-09T22:36:23.454Z,20.38
2022-12-09T22:38:52.993Z,20.67
2022-12-09T22:41:22.013Z,19.48
2022-12-09T22:43:51.674Z,21.02
2022-12-09T22:46:24.223Z,21.80
2022-12-09T22:48:53.389Z,20.70
2022-12-09T22:51:27.574Z,20.98
2022-12-09T22:53:55.656Z,21.73
2022-12-09T22:56:25.600Z,19.38
2022-12-09T22:58:54.941Z,18.77
2022-12-09T23:01:27.279Z,19.33
2022-12-09T23:03:55.461Z,20.88
2022-12-09T23:06:22.773Z,19.67
2022-12-09T23:08:51.561Z,19.25
2022-12-09T23:11:24.707Z,19.23
2022-12-09T23:13:54.434Z,18.60
2022-12-09T23:16:25.413Z,20.40
2022-12-09T23:18:54.334Z,20.35
2022-12-09T23:21:27.174Z,19.10
2022-12-09T23:23:56.529Z,19.15
2022-12-09T23:26:28.571Z,19.73
2022-12-09T23:28:59.592Z,20.60
2022-12-09T23:31:29.179Z,18.77
2022-12-09T23:33:56.493Z,19.77
2022-12-09T23:36:25.919Z,20.73
2022-12-09T23:38:53.781Z,20.17
2022-12-09T23:41:22.044Z,19.15
2022-12-09T23:43:49.989Z,20.75
2022-12-09T23:46:22.299Z,20.63
2022-12-09T23:48:50.179Z,20.40
2022-12-09T23:51:25.261Z,18.95
2022-12-09T23:53:54.629Z,20.23
2022-12-09T23:56:23.263Z,18.73
2022-12-09T23:58:55.426Z,21.42
